createdAt,value
2023-03-17T00:01:55.897Z,3.05
2023-03-17T00:04:25.034Z,2.30
2023-03-17T00:06:52.966Z,3.08
2023-03-17T00:09:22.694Z,2.80
2023-03-17T00:11:55.248Z,2.60
2023-03-17T00:14:22.839Z,2.28
2023-03-17T00:16:55.061Z,2.72
2023-03-17T00:19:26.393Z,2.67
2023-03-17T00:21:56.140Z,2.50
2023-03-17T00:24:27.574Z,2.80
2023-03-17T00:26:54.277Z,3.15
2023-03-17T00:29:21.033Z,2.70
2023-03-17T00:31:48.113Z,2.50
2023-03-17T00:34:18.537Z,3.00
2023-03-17T00:36:48.240Z,3.00
2023-03-17T00:41:42.424Z,3.35
2023-03-17T00:44:12.300Z,2.60
2023-03-17T00:46:43.202Z,2.58
2023-03-17T00:49:24.288Z,2.53
2023-03-17T00:51:51.427Z,2.60
2023-03-17T00:54:21.484Z,2.70
2023-03-17T00:56:52.627Z,2.97
2023-03-17T00:59:26.085Z,2.58
2023-03-17T01:01:55.580Z,2.75
2023-03-17T01:04:25.458Z,2.72
2023-03-17T01:06:53.052Z,2.53
2023-03-17T01:09:26.254Z,3.35
2023-03-17T01:11:55.022Z,2.72
2023-03-17T01:14:22.613Z,2.90
2023-03-17T01:16:53.075Z,3.08
2023-03-17T01:19:19.640Z,2.67
2023-03-17T01:21:51.017Z,2.70
2023-03-17T01:24:17.785Z,3.08
2023-03-17T01:26:46.846Z,2.38
2023-03-17T01:29:13.903Z,2.92
2023-03-17T01:31:41.256Z,2.97
2023-03-17T01:34:10.127Z,2.83
2023-03-17T01:36:41.956Z,2.45
2023-03-17T01:39:08.599Z,2.95
2023-03-17T01:41:36.525Z,2.53
2023-03-17T01:44:04.061Z,2.50
2023-03-17T01:46:34.150Z,3.13
2023-03-17T01:49:09.835Z,2.72
2023-03-17T01:51:38.943Z,2.70
2023-03-17T01:54:11.842Z,2.38
2023-03-17T01:56:41.751Z,2.30
2023-03-17T01:59:13.851Z,2.42
2023-03-17T02:01:49.518Z,2.33
2023-03-17T02:04:18.221Z,2.85
2023-03-17T02:06:57.546Z,2.65
2023-03-17T02:09:28.350Z,3.03
2023-03-17T02:11:56.222Z,2.17
2023-03-17T02:14:22.796Z,2.70
2023-03-17T02:16:51.762Z,2.50
2023-03-17T02:19:21.098Z,3.10
2023-03-17T02:24:33.716Z,2.72
2023-03-17T02:27:26.282Z,2.47
2023-03-17T02:29:55.090Z,2.40
2023-03-17T02:32:22.038Z,2.88
2023-03-17T02:34:49.024Z,2.30
2023-03-17T02:37:17.310Z,2.53
2023-03-17T02:39:46.898Z,2.70
2023-03-17T02:42:14.286Z,2.75
2023-03-17T02:44:40.930Z,2.78
2023-03-17T02:47:09.862Z,2.80
2023-03-17T02:49:42.221Z,2.75
2023-03-17T02:52:12.099Z,2.78
2023-03-17T02:54:41.312Z,2.28
2023-03-17T02:57:10.358Z,2.60
2023-03-17T02:59:39.239Z,2.75
2023-03-17T03:02:05.928Z,3.17
2023-03-17T03:04:32.727Z,2.25
2023-03-17T03:07:01.584Z,2.47
2023-03-17T03:09:28.153Z,2.60
2023-03-17T03:11:57.202Z,2.30
2023-03-17T03:14:23.866Z,2.30
2023-03-17T03:16:52.764Z,2.58
2023-03-17T03:19:22.768Z,2.40
2023-03-17T03:21:52.093Z,2.00
2023-03-17T03:24:18.666Z,2.55
2023-03-17T03:26:47.516Z,2.60
2023-03-17T03:29:16.865Z,2.50
2023-03-17T03:31:48.148Z,2.67
2023-03-17T03:34:17.956Z,2.90
2023-03-17T03:36:46.859Z,2.72
2023-03-17T03:39:15.886Z,2.63
2023-03-17T03:41:45.273Z,2.83
2023-03-17T03:46:38.359Z,3.05
2023-03-17T03:49:07.486Z,3.20
2023-03-17T03:51:37.028Z,2.85
2023-03-17T03:54:03.785Z,2.85
2023-03-17T03:56:30.374Z,2.38
2023-03-17T03:59:01.651Z,2.85
2023-03-17T04:01:28.399Z,2.97
2023-03-17T04:03:59.416Z,3.25
2023-03-17T04:06:26.016Z,2.72
2023-03-17T04:08:57.809Z,2.80
2023-03-17T04:11:27.522Z,2.55
2023-03-17T04:14:01.739Z,2.70
2023-03-17T04:16:28.341Z,2.53
2023-03-17T04:18:55.006Z,2.83
2023-03-17T04:21:21.791Z,3.35
2023-03-17T04:23:48.358Z,2.90
2023-03-17T04:26:14.930Z,2.80
2023-03-17T04:28:41.493Z,2.63
2023-03-17T04:31:12.309Z,2.55
2023-03-17T04:33:41.579Z,3.03
2023-03-17T04:36:15.482Z,4.68
2023-03-17T04:38:44.273Z,3.95
2023-03-17T04:41:14.596Z,3.40
2023-03-17T04:43:44.438Z,3.33
2023-03-17T04:46:13.370Z,3.00
2023-03-17T04:48:43.305Z,2.85
2023-03-17T04:51:12.165Z,2.97
2023-03-17T04:53:41.178Z,2.95
2023-03-17T04:56:07.764Z,3.05
2023-03-17T04:58:39.238Z,2.28
2023-03-17T05:01:06.264Z,2.50
2023-03-17T05:03:33.264Z,3.25
2023-03-17T05:06:03.603Z,2.33
2023-03-17T05:08:32.591Z,2.90
2023-03-17T05:10:59.441Z,3.13
2023-03-17T05:13:26.631Z,4.18
2023-03-17T05:16:00.887Z,3.28
2023-03-17T05:18:29.825Z,3.40
2023-03-17T05:20:58.493Z,2.92
2023-03-17T05:23:27.909Z,3.00
2023-03-17T05:28:21.349Z,2.67
2023-03-17T05:30:52.902Z,3.33
2023-03-17T05:33:21.730Z,2.80
2023-03-17T05:35:48.571Z,3.10
2023-03-17T05:38:18.863Z,2.70
2023-03-17T05:40:45.696Z,2.70
2023-03-17T05:43:12.279Z,2.83
2023-03-17T05:45:43.899Z,3.60
2023-03-17T05:48:13.205Z,3.97
2023-03-17T05:50:42.725Z,3.65
2023-03-17T05:53:12.026Z,3.95
2023-03-17T05:55:43.333Z,3.42
2023-03-17T05:58:12.812Z,4.32
2023-03-17T06:00:39.380Z,4.10
2023-03-17T06:03:08.202Z,4.00
2023-03-17T06:05:35.196Z,3.90
2023-03-17T06:08:05.119Z,3.67
2023-03-17T06:10:33.028Z,3.83
2023-03-17T06:13:03.358Z,3.50
2023-03-17T06:15:34.254Z,4.28
2023-03-17T06:18:01.031Z,4.13
2023-03-17T06:20:29.933Z,3.70
2023-03-17T06:23:04.404Z,4.38
2023-03-17T06:25:35.074Z,4.05
2023-03-17T06:28:04.906Z,3.60
2023-03-17T06:30:40.839Z,4.32
2023-03-17T06:33:10.181Z,4.78
2023-03-17T06:35:39.346Z,4.15
2023-03-17T06:38:05.942Z,3.95
2023-03-17T06:40:35.320Z,4.40
2023-03-17T06:45:29.314Z,4.25
2023-03-17T06:47:56.259Z,3.67
2023-03-17T06:50:25.433Z,4.60
2023-03-17T06:52:54.746Z,4.18
2023-03-17T06:57:54.304Z,4.40
2023-03-17T07:00:23.841Z,3.60
2023-03-17T07:03:31.174Z,4.05
2023-03-17T07:05:58.118Z,3.97
2023-03-17T07:08:30.888Z,4.35
2023-03-17T07:10:58.989Z,4.50
2023-03-17T07:13:29.036Z,4.35
2023-03-17T07:15:55.854Z,4.18
2023-03-17T07:18:26.022Z,3.92
2023-03-17T07:20:52.580Z,3.88
2023-03-17T07:23:23.946Z,3.42
2023-03-17T07:25:53.369Z,3.92
2023-03-17T07:28:21.634Z,4.30
2023-03-17T07:30:52.487Z,4.60
2023-03-17T07:33:23.928Z,4.03
2023-03-17T07:35:52.184Z,4.03
2023-03-17T07:38:19.394Z,3.60
2023-03-17T07:40:49.003Z,4.10
2023-03-17T07:43:18.873Z,4.80
2023-03-17T07:45:46.742Z,4.10
2023-03-17T07:48:13.333Z,4.82
2023-03-17T07:50:40.192Z,4.55
2023-03-17T07:53:09.276Z,4.35
2023-03-17T07:55:38.941Z,4.43
2023-03-17T07:58:06.509Z,4.80
2023-03-17T08:00:35.949Z,5.10
2023-03-17T08:03:10.736Z,4.70
2023-03-17T08:05:41.070Z,4.78
2023-03-17T08:08:07.685Z,4.68
2023-03-17T08:10:35.048Z,4.88
2023-03-17T08:13:04.984Z,4.88
2023-03-17T08:15:31.574Z,4.03
2023-03-17T08:18:01.050Z,4.10
2023-03-17T08:20:30.420Z,4.32
2023-03-17T08:22:57.207Z,4.30
2023-03-17T08:25:24.734Z,3.75
2023-03-17T08:27:54.079Z,4.53
2023-03-17T08:30:23.391Z,4.30
2023-03-17T08:32:50.043Z,3.35
2023-03-17T08:35:20.874Z,4.00
2023-03-17T08:37:49.755Z,3.67
2023-03-17T08:40:21.134Z,3.13
2023-03-17T08:42:52.740Z,2.40
2023-03-17T08:45:19.619Z,2.28
2023-03-17T08:47:47.620Z,2.20
2023-03-17T08:50:23.241Z,2.30
2023-03-17T08:52:52.859Z,1.80
2023-03-17T08:55:20.369Z,2.38
2023-03-17T08:57:47.270Z,2.33
2023-03-17T09:00:21.447Z,1.98
2023-03-17T09:02:48.590Z,3.05
2023-03-17T09:05:16.883Z,2.33
2023-03-17T09:07:47.306Z,2.33
2023-03-17T09:10:16.898Z,2.40
2023-03-17T09:12:43.549Z,2.60
2023-03-17T09:15:14.028Z,2.33
2023-03-17T09:17:43.920Z,1.98
2023-03-17T09:20:13.936Z,2.13
2023-03-17T09:22:40.884Z,1.92
2023-03-17T09:25:11.026Z,11.48
2023-03-17T09:27:39.987Z,5.55
2023-03-17T09:30:07.518Z,2.45
2023-03-17T09:32:37.191Z,12.45
2023-03-17T09:35:07.073Z,3.05
2023-03-17T09:37:34.524Z,2.30
2023-03-17T09:40:01.141Z,2.40
2023-03-17T09:42:27.649Z,2.08
2023-03-17T09:45:16.288Z,2.28
2023-03-17T09:48:01.197Z,2.50
2023-03-17T09:50:36.115Z,3.30
2023-03-17T09:53:05.091Z,2.47
2023-03-17T09:55:35.833Z,2.30
2023-03-17T09:58:03.671Z,2.70
2023-03-17T10:00:33.550Z,2.10
2023-03-17T10:03:02.628Z,2.47
2023-03-17T10:08:31.349Z,2.40
2023-03-17T10:11:24.865Z,2.28
2023-03-17T10:14:00.733Z,2.35
2023-03-17T10:16:36.958Z,2.50
2023-03-17T10:19:16.068Z,2.65
2023-03-17T10:21:54.105Z,2.38
2023-03-17T10:24:22.005Z,2.70
2023-03-17T10:26:56.143Z,2.30
2023-03-17T10:29:27.643Z,2.50
2023-03-17T10:31:58.434Z,2.40
2023-03-17T10:34:36.699Z,2.30
2023-03-17T10:37:13.108Z,2.65
2023-03-17T10:42:25.515Z,2.40
2023-03-17T10:45:01.387Z,2.50
2023-03-17T10:47:35.228Z,2.53
2023-03-17T10:50:21.062Z,2.55
2023-03-17T10:53:11.828Z,2.13
2023-03-17T10:55:38.337Z,2.20
2023-03-17T10:58:16.291Z,2.38
2023-03-17T11:01:05.685Z,2.70
2023-03-17T11:03:38.913Z,2.60
2023-03-17T11:06:14.696Z,2.58
2023-03-17T11:08:51.215Z,2.50
2023-03-17T11:11:48.496Z,2.70
2023-03-17T11:14:22.305Z,2.30
2023-03-17T11:16:57.714Z,2.55
2023-03-17T11:19:45.169Z,2.53
2023-03-17T11:22:17.606Z,2.40
2023-03-17T11:25:09.621Z,2.55
2023-03-17T11:27:47.272Z,3.22
2023-03-17T11:30:25.814Z,2.92
2023-03-17T11:33:10.587Z,2.88
2023-03-17T11:36:09.235Z,3.33
2023-03-17T11:38:43.958Z,2.65
2023-03-17T11:41:28.517Z,2.67
2023-03-17T11:44:03.445Z,2.30
2023-03-17T11:47:04.102Z,2.35
2023-03-17T11:49:38.728Z,2.10
2023-03-17T11:52:22.047Z,2.10
2023-03-17T11:55:00.384Z,2.20
2023-03-17T11:57:46.634Z,2.05
2023-03-17T12:00:34.417Z,2.33
2023-03-17T12:03:08.803Z,2.08
2023-03-17T12:05:39.691Z,2.40
2023-03-17T12:08:12.478Z,2.38
2023-03-17T12:10:45.708Z,2.10
2023-03-17T12:13:48.784Z,2.25
2023-03-17T12:16:17.397Z,2.13
2023-03-17T12:19:00.539Z,2.30
2023-03-17T12:21:36.906Z,2.30
2023-03-17T12:24:12.799Z,2.33
2023-03-17T12:26:52.934Z,2.50
2023-03-17T12:29:39.720Z,2.92
2023-03-17T12:32:21.718Z,2.40
2023-03-17T12:34:57.901Z,2.00
2023-03-17T12:37:30.120Z,2.35
2023-03-17T12:40:32.721Z,2.60
2023-03-17T12:43:17.438Z,2.40
2023-03-17T12:46:08.749Z,2.63
2023-03-17T12:48:59.903Z,2.40
2023-03-17T12:52:01.142Z,2.25
2023-03-17T12:54:32.055Z,2.30
2023-03-17T12:57:17.378Z,2.40
2023-03-17T12:59:49.290Z,3.35
2023-03-17T13:02:31.007Z,2.90
2023-03-17T13:05:02.939Z,2.30
2023-03-17T13:07:47.976Z,2.58
2023-03-17T13:10:36.563Z,2.55
2023-03-17T13:13:06.127Z,2.20
2023-03-17T13:15:38.561Z,2.08
2023-03-17T13:18:14.516Z,2.58
2023-03-17T13:21:04.135Z,2.63
2023-03-17T13:24:15.291Z,2.35
2023-03-17T13:27:03.695Z,2.60
2023-03-17T13:29:33.206Z,2.30
2023-03-17T13:32:26.822Z,2.70
2023-03-17T13:35:15.685Z,2.65
2023-03-17T13:38:09.804Z,2.45
2023-03-17T13:41:04.348Z,2.63
2023-03-17T13:43:36.910Z,2.70
2023-03-17T13:46:30.478Z,2.40
2023-03-17T13:51:34.496Z,2.55
2023-03-17T13:54:21.785Z,2.47
2023-03-17T13:56:50.989Z,2.88
2023-03-17T13:59:19.798Z,2.22
2023-03-17T14:01:59.742Z,2.30
2023-03-17T14:04:29.844Z,3.05
2023-03-17T14:07:05.428Z,2.22
2023-03-17T14:09:41.538Z,2.30
2023-03-17T14:12:26.059Z,2.33
2023-03-17T14:14:57.961Z,3.00
2023-03-17T14:17:29.966Z,2.03
2023-03-17T14:20:19.678Z,2.53
2023-03-17T14:22:52.486Z,3.13
2023-03-17T14:25:24.754Z,2.40
2023-03-17T14:27:56.983Z,2.50
2023-03-17T14:30:25.118Z,2.88
2023-03-17T14:33:25.627Z,2.45
2023-03-17T14:35:56.824Z,2.60
2023-03-17T14:38:24.863Z,2.53
2023-03-17T14:41:19.735Z,2.50
2023-03-17T14:43:49.586Z,2.60
2023-03-17T14:46:30.127Z,2.30
2023-03-17T14:49:17.756Z,2.92
2023-03-17T14:51:53.502Z,3.28
2023-03-17T14:54:33.390Z,2.58
2023-03-17T14:57:03.388Z,2.42
2023-03-17T14:59:41.890Z,2.60
2023-03-17T15:02:37.894Z,2.42
2023-03-17T15:05:15.748Z,2.50
2023-03-17T15:07:42.851Z,2.58
2023-03-17T15:10:34.180Z,2.50
2023-03-17T15:13:05.219Z,2.42
2023-03-17T15:15:37.935Z,2.65
2023-03-17T15:18:11.405Z,2.78
2023-03-17T15:20:38.212Z,2.72
2023-03-17T15:23:08.556Z,2.45
2023-03-17T15:25:42.293Z,3.15
2023-03-17T15:28:19.835Z,2.30
2023-03-17T15:30:51.980Z,2.67
2023-03-17T15:33:28.454Z,2.47
2023-03-17T15:36:00.010Z,2.60
2023-03-17T15:38:29.315Z,2.72
2023-03-17T15:40:56.489Z,2.80
2023-03-17T15:43:23.659Z,2.53
2023-03-17T15:46:22.468Z,2.92
2023-03-17T15:48:49.280Z,2.35
2023-03-17T15:51:17.134Z,2.88
2023-03-17T15:53:43.799Z,3.13
2023-03-17T15:56:20.681Z,2.97
2023-03-17T15:58:49.305Z,2.78
2023-03-17T16:01:16.781Z,2.80
2023-03-17T16:03:47.009Z,3.13
2023-03-17T16:06:24.061Z,2.58
2023-03-17T16:08:53.396Z,2.80
2023-03-17T16:11:28.269Z,2.70
2023-03-17T16:13:59.796Z,2.58
2023-03-17T16:16:35.870Z,2.50
2023-03-17T16:19:04.802Z,2.90
2023-03-17T16:21:32.356Z,3.58
2023-03-17T16:23:59.215Z,2.95
2023-03-17T16:26:25.936Z,2.70
2023-03-17T16:28:52.818Z,2.55
2023-03-17T16:31:25.648Z,2.97
2023-03-17T16:33:57.406Z,2.67
2023-03-17T16:36:24.982Z,3.38
2023-03-17T16:38:51.707Z,2.63
2023-03-17T16:41:22.854Z,2.67
2023-03-17T16:43:57.771Z,2.75
2023-03-17T16:46:26.474Z,2.80
2023-03-17T16:48:53.146Z,2.30
2023-03-17T16:51:19.855Z,2.67
2023-03-17T16:53:46.901Z,3.55
2023-03-17T16:56:19.585Z,2.70
2023-03-17T16:58:49.421Z,2.83
2023-03-17T17:01:20.048Z,3.30
2023-03-17T17:03:49.539Z,2.97
2023-03-17T17:06:17.063Z,3.22
2023-03-17T17:08:47.085Z,3.33
2023-03-17T17:11:17.789Z,3.50
2023-03-17T17:13:46.734Z,3.67
2023-03-17T17:16:34.503Z,3.70
2023-03-17T17:19:04.482Z,3.55
2023-03-17T17:21:33.964Z,3.33
2023-03-17T17:24:03.016Z,4.03
2023-03-17T17:26:32.562Z,3.10
2023-03-17T17:29:01.399Z,3.03
2023-03-17T17:31:28.012Z,3.88
2023-03-17T17:33:54.659Z,4.18
2023-03-17T17:36:25.391Z,3.50
2023-03-17T17:38:54.260Z,3.35
2023-03-17T17:41:23.589Z,3.35
2023-03-17T17:43:50.521Z,4.13
2023-03-17T17:46:23.195Z,4.13
2023-03-17T17:48:50.143Z,4.00
2023-03-17T17:51:17.080Z,4.15
2023-03-17T17:53:43.888Z,4.18
2023-03-17T17:56:15.574Z,4.35
2023-03-17T17:58:42.991Z,4.68
2023-03-17T18:01:13.031Z,5.70
2023-03-17T18:03:43.147Z,4.82
2023-03-17T18:06:13.227Z,5.07
2023-03-17T18:08:40.724Z,5.00
2023-03-17T18:11:12.360Z,3.83
2023-03-17T18:13:40.143Z,3.92
2023-03-17T18:16:10.032Z,4.55
2023-03-17T18:18:43.293Z,4.10
2023-03-17T18:21:09.981Z,4.25
2023-03-17T18:23:39.075Z,4.95
2023-03-17T18:26:06.414Z,5.13
2023-03-17T18:28:36.064Z,4.60
2023-03-17T18:31:10.537Z,4.72
2023-03-17T18:33:40.621Z,4.45
2023-03-17T18:36:08.796Z,3.70
2023-03-17T18:38:38.467Z,3.80
2023-03-17T18:41:11.131Z,3.25
2023-03-17T18:43:46.042Z,4.60
2023-03-17T18:46:18.015Z,4.32
2023-03-17T18:48:44.632Z,4.65
2023-03-17T18:51:11.223Z,4.18
2023-03-17T18:53:39.186Z,4.75
2023-03-17T18:56:09.402Z,4.68
2023-03-17T18:58:38.490Z,4.90
2023-03-17T19:01:05.355Z,4.30
2023-03-17T19:03:36.827Z,4.65
2023-03-17T19:06:15.905Z,4.88
2023-03-17T19:08:47.292Z,4.25
2023-03-17T19:11:18.300Z,4.10
2023-03-17T19:13:47.388Z,4.40
2023-03-17T19:16:14.731Z,5.28
2023-03-17T19:18:42.247Z,4.72
2023-03-17T19:21:10.260Z,5.00
2023-03-17T19:23:38.326Z,6.25
2023-03-17T19:26:05.883Z,6.15
2023-03-17T19:28:33.346Z,5.93
2023-03-17T19:31:02.238Z,5.18
2023-03-17T19:33:29.024Z,4.80
2023-03-17T19:35:59.958Z,4.60
2023-03-17T19:38:29.380Z,5.20
2023-03-17T19:40:58.247Z,4.00
2023-03-17T19:43:39.928Z,4.35
2023-03-17T19:46:08.146Z,4.88
2023-03-17T19:48:35.627Z,4.60
2023-03-17T19:51:03.244Z,5.28
2023-03-17T19:53:29.988Z,5.50
2023-03-17T19:55:59.321Z,5.35
2023-03-17T19:58:28.263Z,5.68
2023-03-17T20:00:59.734Z,6.25
2023-03-17T20:03:26.494Z,8.50
2023-03-17T20:05:55.902Z,7.57
2023-03-17T20:08:27.334Z,7.15
2023-03-17T20:10:56.365Z,6.90
2023-03-17T20:13:23.122Z,5.65
2023-03-17T20:15:51.485Z,6.05
2023-03-17T20:18:23.105Z,5.93
2023-03-17T20:20:52.982Z,6.05
2023-03-17T20:23:19.936Z,6.50
2023-03-17T20:25:54.318Z,5.85
2023-03-17T20:28:21.683Z,5.63
2023-03-17T20:30:50.158Z,5.70
2023-03-17T20:33:20.416Z,6.30
2023-03-17T20:35:52.254Z,6.03
2023-03-17T20:38:19.512Z,5.93
2023-03-17T20:40:51.008Z,6.05
2023-03-17T20:43:22.320Z,5.35
2023-03-17T20:45:50.685Z,6.65
2023-03-17T20:48:19.461Z,6.00
2023-03-17T20:50:51.520Z,5.82
2023-03-17T20:53:18.125Z,6.05
2023-03-17T20:55:47.256Z,5.57
2023-03-17T20:58:16.115Z,6.03
2023-03-17T21:00:42.681Z,6.32
2023-03-17T21:03:11.638Z,6.25
2023-03-17T21:05:42.771Z,6.15
2023-03-17T21:08:09.637Z,6.75
2023-03-17T21:10:36.272Z,6.15
2023-03-17T21:13:03.967Z,7.25
2023-03-17T21:15:30.573Z,6.78
2023-03-17T21:18:00.131Z,6.65
2023-03-17T21:20:29.637Z,7.43
2023-03-17T21:22:59.657Z,7.40
2023-03-17T21:25:26.762Z,7.30
2023-03-17T21:27:53.960Z,7.38
2023-03-17T21:30:20.657Z,7.15
2023-03-17T21:32:47.241Z,7.20
2023-03-17T21:35:16.308Z,6.40
2023-03-17T21:37:45.140Z,6.60
2023-03-17T21:40:17.681Z,6.97
2023-03-17T21:42:44.323Z,7.00
2023-03-17T21:45:13.853Z,6.22
2023-03-17T21:47:41.187Z,7.22
2023-03-17T21:50:08.394Z,6.72
2023-03-17T21:52:37.978Z,6.57
2023-03-17T21:55:08.199Z,6.80
2023-03-17T21:57:37.253Z,6.10
2023-03-17T22:00:10.660Z,6.50
2023-03-17T22:02:37.432Z,7.05
2023-03-17T22:05:04.926Z,6.32
2023-03-17T22:07:31.672Z,6.53
2023-03-17T22:09:58.334Z,6.93
2023-03-17T22:12:25.141Z,6.50
2023-03-17T22:14:53.895Z,6.47
2023-03-17T22:17:22.679Z,6.85
2023-03-17T22:19:49.725Z,6.32
2023-03-17T22:22:18.573Z,6.30
2023-03-17T22:24:48.468Z,6.18
2023-03-17T22:27:18.021Z,6.82
2023-03-17T22:29:44.772Z,6.07
2023-03-17T22:32:11.510Z,5.88
2023-03-17T22:34:41.060Z,7.15
2023-03-17T22:37:10.337Z,5.32
2023-03-17T22:42:03.459Z,5.40
2023-03-17T22:44:30.043Z,6.85
2023-03-17T22:46:58.906Z,6.32
2023-03-17T22:49:25.534Z,6.03
2023-03-17T22:51:52.218Z,6.22
2023-03-17T22:54:18.875Z,6.72
2023-03-17T22:56:50.571Z,6.40
2023-03-17T22:59:19.378Z,7.18
2023-03-17T23:01:46.039Z,6.82
2023-03-17T23:04:14.872Z,6.85
2023-03-17T23:06:41.845Z,7.20
2023-03-17T23:09:11.118Z,6.75
2023-03-17T23:14:06.844Z,6.20
2023-03-17T23:16:37.822Z,6.15
2023-03-17T23:19:05.188Z,6.70
2023-03-17T23:21:35.947Z,5.82
2023-03-17T23:24:03.991Z,6.45
2023-03-17T23:26:36.924Z,6.20
2023-03-17T23:29:11.790Z,5.90
2023-03-17T23:31:39.646Z,6.10
2023-03-17T23:34:07.969Z,5.95
2023-03-17T23:36:40.050Z,5.47
2023-03-17T23:39:10.365Z,6.72
2023-03-17T23:41:37.372Z,5.50
2023-03-17T23:44:06.553Z,5.85
2023-03-17T23:46:35.441Z,6.03
2023-03-17T23:49:04.484Z,5.40
2023-03-17T23:51:31.110Z,4.93
2023-03-17T23:54:00.486Z,4.68
2023-03-17T23:56:29.443Z,4.47
2023-03-17T23:58:56.000Z,4.10
